< < Back
Terminal Aerodrome Forecast


Current Version              Previous Versions:   1  2  3  4  5  6  7  8  9  

Terminal Aerodrome Forecast

973
FTUS44 KBMX 311120
TAFTCL
TAF
KTCL 311120Z 3112/0112 25004KT P6SM SCT050
     FM010200 00000KT P6SM SCT250=

Latest METAR

935
SAUS70 KWBC 311200 RRN
MTRTCL
METAR KTCL 311153Z 00000KT 6SM BR CLR 20/19 A2995 RMK AO2 SLP138
T02000194 10217 20194 53013


USA.gov is the U.S. government's official web portal to all federal, state and local government web resources and services.